sensor_id;sensor_type;location;lat;lon;timestamp;pressure;altitude;pressure_sealevel;temperature;humidity
33845;BME280;20145;43.118;25.694;2023-02-11T00:00:57;101517.91;;;-7.22;80.38
33845;BME280;20145;43.118;25.694;2023-02-11T00:03:23;101521.91;;;-7.24;80.04
33845;BME280;20145;43.118;25.694;2023-02-11T00:06:03;101525.16;;;-7.25;80.69
33845;BME280;20145;43.118;25.694;2023-02-11T00:08:29;101514.69;;;-7.29;80.60
33845;BME280;20145;43.118;25.694;2023-02-11T00:10:55;101527.81;;;-7.23;80.53
33845;BME280;20145;43.118;25.694;2023-02-11T00:13:22;101507.44;;;-7.26;80.26
33845;BME280;20145;43.118;25.694;2023-02-11T00:15:48;101514.38;;;-7.24;79.55
33845;BME280;20145;43.118;25.694;2023-02-11T00:18:14;101508.75;;;-7.21;80.32
33845;BME280;20145;43.118;25.694;2023-02-11T00:20:40;101507.44;;;-7.18;79.47
33845;BME280;20145;43.118;25.694;2023-02-11T00:23:06;101512.63;;;-7.25;79.25
33845;BME280;20145;43.118;25.694;2023-02-11T00:25:32;101517.16;;;-7.21;79.88
33845;BME280;20145;43.118;25.694;2023-02-11T00:27:58;101510.28;;;-7.23;78.99
33845;BME280;20145;43.118;25.694;2023-02-11T00:30:23;101506.44;;;-7.28;79.26
33845;BME280;20145;43.118;25.694;2023-02-11T00:32:49;101508.69;;;-7.31;78.43
33845;BME280;20145;43.118;25.694;2023-02-11T00:35:15;101510.16;;;-7.33;78.15
33845;BME280;20145;43.118;25.694;2023-02-11T00:37:40;101510.59;;;-7.37;79.53
33845;BME280;20145;43.118;25.694;2023-02-11T00:40:06;101499.69;;;-7.38;78.72
33845;BME280;20145;43.118;25.694;2023-02-11T00:42:32;101473.34;;;-7.52;78.93
33845;BME280;20145;43.118;25.694;2023-02-11T00:45:00;101499.28;;;-7.43;79.48
33845;BME280;20145;43.118;25.694;2023-02-11T00:47:26;101503.69;;;-7.49;79.92
33845;BME280;20145;43.118;25.694;2023-02-11T00:49:51;101500.31;;;-7.49;80.12
33845;BME280;20145;43.118;25.694;2023-02-11T00:52:17;101501.66;;;-7.53;80.93
33845;BME280;20145;43.118;25.694;2023-02-11T00:54:43;101493.25;;;-7.53;80.67
33845;BME280;20145;43.118;25.694;2023-02-11T00:57:08;101490.16;;;-7.51;80.14
33845;BME280;20145;43.118;25.694;2023-02-11T00:59:34;101489.13;;;-7.53;81.89
33845;BME280;20145;43.118;25.694;2023-02-11T01:01:59;101498.41;;;-7.52;82.64
33845;BME280;20145;43.118;25.694;2023-02-11T01:04:25;101490.59;;;-7.55;82.48
33845;BME280;20145;43.118;25.694;2023-02-11T01:06:51;101492.50;;;-7.52;81.83
33845;BME280;20145;43.118;25.694;2023-02-11T01:09:16;101485.56;;;-7.46;82.11
33845;BME280;20145;43.118;25.694;2023-02-11T01:11:42;101480.66;;;-7.36;82.84
33845;BME280;20145;43.118;25.694;2023-02-11T01:14:08;101480.91;;;-7.24;82.17
33845;BME280;20145;43.118;25.694;2023-02-11T01:16:33;101472.19;;;-7.19;82.84
33845;BME280;20145;43.118;25.694;2023-02-11T01:18:59;101470.34;;;-7.03;83.91
33845;BME280;20145;43.118;25.694;2023-02-11T01:21:25;101468.31;;;-6.88;84.88
33845;BME280;20145;43.118;25.694;2023-02-11T01:23:51;101465.75;;;-6.70;86.01
33845;BME280;20145;43.118;25.694;2023-02-11T01:26:17;101464.41;;;-6.48;85.85
33845;BME280;20145;43.118;25.694;2023-02-11T01:28:42;101463.56;;;-6.19;86.95
33845;BME280;20145;43.118;25.694;2023-02-11T01:31:08;101461.66;;;-6.03;86.15
33845;BME280;20145;43.118;25.694;2023-02-11T01:33:33;101460.41;;;-5.88;85.67
33845;BME280;20145;43.118;25.694;2023-02-11T01:36:03;101453.81;;;-5.77;86.12
33845;BME280;20145;43.118;25.694;2023-02-11T01:38:30;101453.28;;;-5.54;85.23
33845;BME280;20145;43.118;25.694;2023-02-11T01:41:00;101450.66;;;-5.45;83.77
33845;BME280;20145;43.118;25.694;2023-02-11T01:43:30;101454.72;;;-5.37;83.33
33845;BME280;20145;43.118;25.694;2023-02-11T01:46:25;101446.81;;;-5.31;82.94
33845;BME280;20145;43.118;25.694;2023-02-11T01:49:06;101447.44;;;-5.24;83.60
33845;BME280;20145;43.118;25.694;2023-02-11T01:51:37;101452.22;;;-5.17;81.58
33845;BME280;20145;43.118;25.694;2023-02-11T01:54:05;101456.78;;;-5.12;82.52
33845;BME280;20145;43.118;25.694;2023-02-11T01:56:51;101452.19;;;-5.27;82.02
33845;BME280;20145;43.118;25.694;2023-02-11T02:08:18;101469.78;;;-6.06;82.97
33845;BME280;20145;43.118;25.694;2023-02-11T02:10:48;101465.59;;;-6.15;84.58
33845;BME280;20145;43.118;25.694;2023-02-11T02:13:17;101468.50;;;-6.30;82.94
33845;BME280;20145;43.118;25.694;2023-02-11T02:34:51;101471.41;;;-7.09;78.34
33845;BME280;20145;43.118;25.694;2023-02-11T02:37:25;101481.47;;;-7.18;79.91
33845;BME280;20145;43.118;25.694;2023-02-11T02:39:54;101483.41;;;-7.24;79.48
33845;BME280;20145;43.118;25.694;2023-02-11T02:42:22;101483.28;;;-7.34;79.40
33845;BME280;20145;43.118;25.694;2023-02-11T02:44:49;101486.75;;;-7.43;79.37
33845;BME280;20145;43.118;25.694;2023-02-11T02:47:16;101491.91;;;-7.50;79.97
33845;BME280;20145;43.118;25.694;2023-02-11T02:49:43;101492.66;;;-7.59;79.52
33845;BME280;20145;43.118;25.694;2023-02-11T02:52:41;101482.66;;;-7.68;78.99
33845;BME280;20145;43.118;25.694;2023-02-11T03:09:09;101473.00;;;-7.91;78.34
33845;BME280;20145;43.118;25.694;2023-02-11T03:11:37;101480.50;;;-7.91;78.70
33845;BME280;20145;43.118;25.694;2023-02-11T03:14:07;101470.91;;;-7.95;77.89
33845;BME280;20145;43.118;25.694;2023-02-11T03:16:35;101463.00;;;-8.00;78.65
33845;BME280;20145;43.118;25.694;2023-02-11T03:19:36;101474.03;;;-7.98;78.56
33845;BME280;20145;43.118;25.694;2023-02-11T03:22:07;101475.34;;;-8.01;78.46
33845;BME280;20145;43.118;25.694;2023-02-11T03:24:37;101464.75;;;-8.08;77.74
33845;BME280;20145;43.118;25.694;2023-02-11T03:28:13;101473.31;;;-8.05;79.54
33845;BME280;20145;43.118;25.694;2023-02-11T03:30:12;101452.56;;;-8.22;79.99
33845;BME280;20145;43.118;25.694;2023-02-11T03:33:13;101472.25;;;-7.99;79.45
33845;BME280;20145;43.118;25.694;2023-02-11T03:35:52;101469.03;;;-7.98;79.68
33845;BME280;20145;43.118;25.694;2023-02-11T03:38:24;101463.13;;;-7.98;79.11
33845;BME280;20145;43.118;25.694;2023-02-11T03:40:54;101466.22;;;-8.01;80.38
33845;BME280;20145;43.118;25.694;2023-02-11T03:43:27;101465.34;;;-8.01;80.14
33845;BME280;20145;43.118;25.694;2023-02-11T03:45:55;101471.81;;;-7.95;79.42
33845;BME280;20145;43.118;25.694;2023-02-11T03:48:30;101471.06;;;-7.94;78.51
33845;BME280;20145;43.118;25.694;2023-02-11T03:50:58;101470.94;;;-8.04;79.54
33845;BME280;20145;43.118;25.694;2023-02-11T03:53:26;101472.72;;;-8.03;78.14
33845;BME280;20145;43.118;25.694;2023-02-11T03:55:54;101461.81;;;-8.03;79.12
33845;BME280;20145;43.118;25.694;2023-02-11T03:58:21;101468.59;;;-8.02;79.66
33845;BME280;20145;43.118;25.694;2023-02-11T04:00:47;101467.41;;;-8.06;77.85
33845;BME280;20145;43.118;25.694;2023-02-11T04:03:13;101466.50;;;-8.07;77.86
33845;BME280;20145;43.118;25.694;2023-02-11T04:05:39;101471.81;;;-8.12;79.33
33845;BME280;20145;43.118;25.694;2023-02-11T04:08:05;101466.97;;;-8.11;78.34
33845;BME280;20145;43.118;25.694;2023-02-11T04:10:31;101464.31;;;-8.12;78.92
33845;BME280;20145;43.118;25.694;2023-02-11T04:12:57;101467.56;;;-8.13;78.88
33845;BME280;20145;43.118;25.694;2023-02-11T04:15:23;101465.53;;;-8.17;77.97
33845;BME280;20145;43.118;25.694;2023-02-11T04:17:49;101469.03;;;-8.15;78.77
33845;BME280;20145;43.118;25.694;2023-02-11T04:20:15;101466.41;;;-8.17;78.44
33845;BME280;20145;43.118;25.694;2023-02-11T04:22:40;101468.03;;;-8.17;77.79
33845;BME280;20145;43.118;25.694;2023-02-11T04:25:06;101455.66;;;-8.24;77.49
33845;BME280;20145;43.118;25.694;2023-02-11T04:27:32;101463.44;;;-8.21;77.54
33845;BME280;20145;43.118;25.694;2023-02-11T04:29:58;101455.81;;;-8.23;77.03
33845;BME280;20145;43.118;25.694;2023-02-11T04:32:23;101459.19;;;-8.22;77.85
33845;BME280;20145;43.118;25.694;2023-02-11T04:34:49;101456.22;;;-8.18;78.08
33845;BME280;20145;43.118;25.694;2023-02-11T04:37:15;101442.53;;;-8.22;79.16
33845;BME280;20145;43.118;25.694;2023-02-11T04:39:40;101452.84;;;-8.19;78.59
33845;BME280;20145;43.118;25.694;2023-02-11T04:42:07;101444.44;;;-8.19;78.64
33845;BME280;20145;43.118;25.694;2023-02-11T04:44:32;101440.31;;;-8.19;79.28
33845;BME280;20145;43.118;25.694;2023-02-11T04:46:58;101430.31;;;-8.19;79.28
33845;BME280;20145;43.118;25.694;2023-02-11T04:49:24;101437.34;;;-8.15;78.92
33845;BME280;20145;43.118;25.694;2023-02-11T04:51:49;101438.69;;;-8.18;78.25
33845;BME280;20145;43.118;25.694;2023-02-11T04:54:16;101429.00;;;-8.24;78.27
33845;BME280;20145;43.118;25.694;2023-02-11T04:56:42;101430.78;;;-8.23;78.33
33845;BME280;20145;43.118;25.694;2023-02-11T04:59:07;101428.84;;;-8.17;78.36
33845;BME280;20145;43.118;25.694;2023-02-11T05:01:33;101382.38;;;-8.41;78.62
33845;BME280;20145;43.118;25.694;2023-02-11T05:03:59;101427.81;;;-8.19;78.35
33845;BME280;20145;43.118;25.694;2023-02-11T05:06:24;101433.84;;;-8.17;78.30
33845;BME280;20145;43.118;25.694;2023-02-11T05:08:50;101435.00;;;-8.04;81.72
33845;BME280;20145;43.118;25.694;2023-02-11T05:11:19;101423.50;;;-8.02;82.51
33845;BME280;20145;43.118;25.694;2023-02-11T05:13:45;101431.00;;;-7.94;82.59
33845;BME280;20145;43.118;25.694;2023-02-11T05:16:11;101433.06;;;-7.90;82.29
33845;BME280;20145;43.118;25.694;2023-02-11T05:18:38;101434.81;;;-7.80;83.22
33845;BME280;20145;43.118;25.694;2023-02-11T05:21:08;101420.56;;;-7.90;81.81
33845;BME280;20145;43.118;25.694;2023-02-11T05:23:35;101430.41;;;-7.91;81.68
33845;BME280;20145;43.118;25.694;2023-02-11T05:26:01;101430.41;;;-7.91;81.60
33845;BME280;20145;43.118;25.694;2023-02-11T05:28:27;101421.75;;;-7.95;80.76
33845;BME280;20145;43.118;25.694;2023-02-11T05:30:52;101426.00;;;-7.94;80.32
33845;BME280;20145;43.118;25.694;2023-02-11T05:33:18;101422.47;;;-7.96;79.41
33845;BME280;20145;43.118;25.694;2023-02-11T05:35:43;101422.94;;;-8.00;80.80
33845;BME280;20145;43.118;25.694;2023-02-11T05:38:09;101425.25;;;-8.01;80.27
33845;BME280;20145;43.118;25.694;2023-02-11T05:40:35;101418.63;;;-8.01;79.57
33845;BME280;20145;43.118;25.694;2023-02-11T05:43:00;101428.06;;;-7.98;79.08
33845;BME280;20145;43.118;25.694;2023-02-11T05:45:26;101419.94;;;-7.96;78.87
33845;BME280;20145;43.118;25.694;2023-02-11T05:47:52;101421.88;;;-7.93;79.14
33845;BME280;20145;43.118;25.694;2023-02-11T05:50:18;101418.19;;;-7.88;79.08
33845;BME280;20145;43.118;25.694;2023-02-11T05:52:43;101418.16;;;-7.79;79.74
33845;BME280;20145;43.118;25.694;2023-02-11T05:55:09;101434.78;;;-7.71;79.69
33845;BME280;20145;43.118;25.694;2023-02-11T05:57:34;101431.97;;;-7.66;80.15
33845;BME280;20145;43.118;25.694;2023-02-11T06:00:00;101427.50;;;-7.59;78.62
33845;BME280;20145;43.118;25.694;2023-02-11T06:02:26;101426.44;;;-7.44;78.85
33845;BME280;20145;43.118;25.694;2023-02-11T06:04:51;101427.53;;;-7.32;80.59
33845;BME280;20145;43.118;25.694;2023-02-11T06:07:17;101426.03;;;-7.21;79.54
33845;BME280;20145;43.118;25.694;2023-02-11T06:09:44;101431.84;;;-7.03;79.27
33845;BME280;20145;43.118;25.694;2023-02-11T06:12:09;101424.38;;;-6.93;79.49
33845;BME280;20145;43.118;25.694;2023-02-11T06:14:35;101433.28;;;-6.78;80.40
33845;BME280;20145;43.118;25.694;2023-02-11T06:17:01;101431.88;;;-6.65;79.57
33845;BME280;20145;43.118;25.694;2023-02-11T06:19:26;101431.75;;;-6.48;79.34
33845;BME280;20145;43.118;25.694;2023-02-11T06:21:52;101431.47;;;-6.32;79.45
33845;BME280;20145;43.118;25.694;2023-02-11T06:24:18;101428.66;;;-6.16;80.78
33845;BME280;20145;43.118;25.694;2023-02-11T06:26:43;101421.31;;;-6.04;79.42
33845;BME280;20145;43.118;25.694;2023-02-11T06:29:09;101428.50;;;-5.89;80.09
33845;BME280;20145;43.118;25.694;2023-02-11T06:31:36;101433.59;;;-5.78;79.85
33845;BME280;20145;43.118;25.694;2023-02-11T06:34:02;101428.47;;;-5.70;80.15
33845;BME280;20145;43.118;25.694;2023-02-11T06:36:29;101406.78;;;-5.88;80.97
33845;BME280;20145;43.118;25.694;2023-02-11T06:38:55;101441.78;;;-5.71;80.80
33845;BME280;20145;43.118;25.694;2023-02-11T06:41:22;101442.66;;;-5.70;80.48
33845;BME280;20145;43.118;25.694;2023-02-11T06:43:48;101447.34;;;-5.65;80.66
33845;BME280;20145;43.118;25.694;2023-02-11T06:46:14;101451.38;;;-5.56;80.39
33845;BME280;20145;43.118;25.694;2023-02-11T06:48:42;101446.56;;;-5.64;79.73
33845;BME280;20145;43.118;25.694;2023-02-11T06:51:09;101463.28;;;-5.64;80.10
33845;BME280;20145;43.118;25.694;2023-02-11T06:53:37;101463.75;;;-5.68;79.79
33845;BME280;20145;43.118;25.694;2023-02-11T06:56:05;101459.19;;;-5.53;79.99
33845;BME280;20145;43.118;25.694;2023-02-11T06:58:32;101463.59;;;-5.41;80.17
33845;BME280;20145;43.118;25.694;2023-02-11T07:00:58;101457.72;;;-5.31;80.81
33845;BME280;20145;43.118;25.694;2023-02-11T07:03:24;101456.84;;;-5.21;80.84
33845;BME280;20145;43.118;25.694;2023-02-11T07:05:50;101455.13;;;-5.12;79.71
33845;BME280;20145;43.118;25.694;2023-02-11T07:08:16;101458.31;;;-5.04;79.94
33845;BME280;20145;43.118;25.694;2023-02-11T07:10:42;101450.00;;;-4.93;79.62
33845;BME280;20145;43.118;25.694;2023-02-11T07:13:08;101437.53;;;-4.91;80.59
33845;BME280;20145;43.118;25.694;2023-02-11T07:15:36;101455.78;;;-4.74;79.74
33845;BME280;20145;43.118;25.694;2023-02-11T07:18:02;101451.13;;;-4.69;79.35
33845;BME280;20145;43.118;25.694;2023-02-11T07:20:27;101456.41;;;-4.56;80.45
33845;BME280;20145;43.118;25.694;2023-02-11T07:22:53;101460.28;;;-4.49;80.02
33845;BME280;20145;43.118;25.694;2023-02-11T07:25:19;101443.66;;;-4.57;79.59
33845;BME280;20145;43.118;25.694;2023-02-11T07:27:44;101464.06;;;-4.44;79.92
33845;BME280;20145;43.118;25.694;2023-02-11T07:30:11;101460.53;;;-4.36;79.94
33845;BME280;20145;43.118;25.694;2023-02-11T07:32:36;101462.50;;;-4.21;79.68
33845;BME280;20145;43.118;25.694;2023-02-11T07:35:02;101460.84;;;-4.11;78.24
33845;BME280;20145;43.118;25.694;2023-02-11T07:37:28;101452.91;;;-4.05;78.16
33845;BME280;20145;43.118;25.694;2023-02-11T07:39:53;101454.00;;;-3.91;78.35
33845;BME280;20145;43.118;25.694;2023-02-11T07:42:19;101456.63;;;-3.79;77.13
33845;BME280;20145;43.118;25.694;2023-02-11T07:44:45;101452.16;;;-3.72;77.29
33845;BME280;20145;43.118;25.694;2023-02-11T07:47:11;101448.72;;;-3.62;78.08
33845;BME280;20145;43.118;25.694;2023-02-11T07:49:36;101450.28;;;-3.52;77.11
33845;BME280;20145;43.118;25.694;2023-02-11T07:52:02;101445.38;;;-3.51;77.73
33845;BME280;20145;43.118;25.694;2023-02-11T07:54:27;101442.13;;;-3.38;76.99
33845;BME280;20145;43.118;25.694;2023-02-11T07:56:53;101443.47;;;-3.21;78.18
33845;BME280;20145;43.118;25.694;2023-02-11T07:59:18;101441.38;;;-3.15;77.77
33845;BME280;20145;43.118;25.694;2023-02-11T08:01:44;101434.84;;;-3.01;78.08
33845;BME280;20145;43.118;25.694;2023-02-11T08:04:10;101433.88;;;-2.92;78.18
33845;BME280;20145;43.118;25.694;2023-02-11T08:06:40;101429.06;;;-2.88;78.53
33845;BME280;20145;43.118;25.694;2023-02-11T08:09:07;101419.97;;;-2.75;78.41
33845;BME280;20145;43.118;25.694;2023-02-11T08:11:34;101419.81;;;-2.66;77.35
33845;BME280;20145;43.118;25.694;2023-02-11T08:14:00;101423.56;;;-2.49;78.22
33845;BME280;20145;43.118;25.694;2023-02-11T08:16:31;101421.91;;;-2.37;77.27
33845;BME280;20145;43.118;25.694;2023-02-11T08:18:58;101409.16;;;-2.27;77.06
33845;BME280;20145;43.118;25.694;2023-02-11T08:21:25;101417.16;;;-2.09;77.75
33845;BME280;20145;43.118;25.694;2023-02-11T08:23:51;101404.41;;;-1.98;77.41
33845;BME280;20145;43.118;25.694;2023-02-11T08:26:20;101411.53;;;-1.81;75.95
33845;BME280;20145;43.118;25.694;2023-02-11T08:28:47;101411.75;;;-1.66;75.67
33845;BME280;20145;43.118;25.694;2023-02-11T08:31:22;101407.16;;;-1.47;76.01
33845;BME280;20145;43.118;25.694;2023-02-11T08:33:49;101410.94;;;-1.28;75.17
33845;BME280;20145;43.118;25.694;2023-02-11T08:36:18;101401.06;;;-1.12;75.07
33845;BME280;20145;43.118;25.694;2023-02-11T08:38:44;101400.91;;;-1.02;74.08
33845;BME280;20145;43.118;25.694;2023-02-11T08:41:09;101408.91;;;-0.96;73.84
33845;BME280;20145;43.118;25.694;2023-02-11T08:43:36;101410.69;;;-0.81;73.89
33845;BME280;20145;43.118;25.694;2023-02-11T08:46:07;101402.47;;;-0.65;72.46
33845;BME280;20145;43.118;25.694;2023-02-11T08:48:32;101401.81;;;-0.50;71.85
33845;BME280;20145;43.118;25.694;2023-02-11T08:50:59;101395.34;;;-0.45;71.42
33845;BME280;20145;43.118;25.694;2023-02-11T08:53:25;101387.47;;;-0.36;71.42
33845;BME280;20145;43.118;25.694;2023-02-11T08:55:52;101392.44;;;-0.24;70.04
33845;BME280;20145;43.118;25.694;2023-02-11T08:58:19;101387.25;;;-0.12;70.69
33845;BME280;20145;43.118;25.694;2023-02-11T09:00:46;101391.34;;;-0.01;70.00
33845;BME280;20145;43.118;25.694;2023-02-11T09:03:13;101387.81;;;0.10;67.75
33845;BME280;20145;43.118;25.694;2023-02-11T09:05:44;101374.81;;;0.19;68.37
33845;BME280;20145;43.118;25.694;2023-02-11T09:08:10;101385.91;;;0.34;68.09
33845;BME280;20145;43.118;25.694;2023-02-11T09:10:36;101383.06;;;0.43;66.96
33845;BME280;20145;43.118;25.694;2023-02-11T09:13:02;101377.75;;;0.53;67.46
33845;BME280;20145;43.118;25.694;2023-02-11T09:15:28;101379.34;;;0.66;67.87
33845;BME280;20145;43.118;25.694;2023-02-11T09:17:54;101369.94;;;0.78;67.34
33845;BME280;20145;43.118;25.694;2023-02-11T09:20:19;101364.50;;;0.87;67.01
33845;BME280;20145;43.118;25.694;2023-02-11T09:22:46;101368.56;;;0.98;67.44
33845;BME280;20145;43.118;25.694;2023-02-11T09:25:12;101371.44;;;1.04;65.90
33845;BME280;20145;43.118;25.694;2023-02-11T09:27:37;101366.41;;;1.19;65.58
33845;BME280;20145;43.118;25.694;2023-02-11T09:30:03;101357.34;;;1.24;64.82
33845;BME280;20145;43.118;25.694;2023-02-11T09:32:29;101357.34;;;1.24;64.02
33845;BME280;20145;43.118;25.694;2023-02-11T09:34:55;101349.19;;;1.30;63.30
33845;BME280;20145;43.118;25.694;2023-02-11T09:37:20;101345.56;;;1.41;62.38
33845;BME280;20145;43.118;25.694;2023-02-11T09:39:46;101342.06;;;1.54;62.71
33845;BME280;20145;43.118;25.694;2023-02-11T09:44:37;101335.84;;;1.64;63.10
33845;BME280;20145;43.118;25.694;2023-02-11T09:47:06;101328.44;;;1.68;62.00
33845;BME280;20145;43.118;25.694;2023-02-11T09:49:43;101321.13;;;1.74;62.14
33845;BME280;20145;43.118;25.694;2023-02-11T09:57:42;101303.34;;;1.91;58.87
33845;BME280;20145;43.118;25.694;2023-02-11T10:00:34;101299.63;;;2.00;58.16
33845;BME280;20145;43.118;25.694;2023-02-11T10:19:51;101268.53;;;2.39;56.18
33845;BME280;20145;43.118;25.694;2023-02-11T10:22:28;101257.94;;;2.48;56.54
33845;BME280;20145;43.118;25.694;2023-02-11T10:24:58;101258.16;;;2.52;56.65
33845;BME280;20145;43.118;25.694;2023-02-11T10:27:32;101258.47;;;2.58;56.46
33845;BME280;20145;43.118;25.694;2023-02-11T10:32:47;101235.75;;;2.63;55.64
33845;BME280;20145;43.118;25.694;2023-02-11T10:35:19;101241.56;;;2.60;56.13
33845;BME280;20145;43.118;25.694;2023-02-11T10:37:46;101235.19;;;2.68;55.27
33845;BME280;20145;43.118;25.694;2023-02-11T10:40:17;101229.31;;;2.70;56.13
33845;BME280;20145;43.118;25.694;2023-02-11T10:42:48;101231.00;;;2.69;54.44
33845;BME280;20145;43.118;25.694;2023-02-11T10:48:05;101219.19;;;2.71;54.33
33845;BME280;20145;43.118;25.694;2023-02-11T10:50:32;101213.94;;;2.68;54.37
33845;BME280;20145;43.118;25.694;2023-02-11T10:53:18;101199.59;;;2.70;54.81
33845;BME280;20145;43.118;25.694;2023-02-11T10:55:50;101201.00;;;2.81;54.47
33845;BME280;20145;43.118;25.694;2023-02-11T10:58:27;101197.44;;;2.78;54.51
33845;BME280;20145;43.118;25.694;2023-02-11T11:00:55;101194.88;;;2.78;54.62
33845;BME280;20145;43.118;25.694;2023-02-11T11:03:24;101187.53;;;2.84;55.06
33845;BME280;20145;43.118;25.694;2023-02-11T11:05:56;101187.03;;;2.91;55.25
33845;BME280;20145;43.118;25.694;2023-02-11T11:11:12;101185.28;;;3.08;54.08
33845;BME280;20145;43.118;25.694;2023-02-11T11:13:57;101188.97;;;3.15;53.78
33845;BME280;20145;43.118;25.694;2023-02-11T11:16:32;101179.13;;;3.04;53.65
33845;BME280;20145;43.118;25.694;2023-02-11T11:21:36;101172.72;;;3.12;54.47
33845;BME280;20145;43.118;25.694;2023-02-11T11:26:57;101163.84;;;3.04;53.15
33845;BME280;20145;43.118;25.694;2023-02-11T11:29:38;101165.16;;;2.96;54.11
33845;BME280;20145;43.118;25.694;2023-02-11T11:34:40;101153.72;;;3.06;54.05
33845;BME280;20145;43.118;25.694;2023-02-11T11:37:21;101146.22;;;3.09;55.51
33845;BME280;20145;43.118;25.694;2023-02-11T11:45:02;101136.91;;;3.29;54.14
33845;BME280;20145;43.118;25.694;2023-02-11T11:47:51;101134.59;;;3.33;53.09
33845;BME280;20145;43.118;25.694;2023-02-11T11:50:39;101131.47;;;3.41;53.14
33845;BME280;20145;43.118;25.694;2023-02-11T11:53:14;101109.44;;;3.41;52.76
33845;BME280;20145;43.118;25.694;2023-02-11T11:55:48;101127.06;;;3.56;52.12
33845;BME280;20145;43.118;25.694;2023-02-11T11:58:20;101110.03;;;3.55;52.22
33845;BME280;20145;43.118;25.694;2023-02-11T12:25:32;101073.22;;;3.69;53.62
33845;BME280;20145;43.118;25.694;2023-02-11T12:30:59;101067.50;;;3.75;53.16
33845;BME280;20145;43.118;25.694;2023-02-11T12:33:39;101061.78;;;3.80;50.92
33845;BME280;20145;43.118;25.694;2023-02-11T12:39:25;101059.69;;;3.91;51.01
33845;BME280;20145;43.118;25.694;2023-02-11T12:42:01;101052.03;;;3.91;50.64
33845;BME280;20145;43.118;25.694;2023-02-11T12:55:26;101040.56;;;4.02;49.71
33845;BME280;20145;43.118;25.694;2023-02-11T12:57:55;101025.03;;;3.98;49.92
33845;BME280;20145;43.118;25.694;2023-02-11T13:03:57;101034.72;;;4.05;49.37
33845;BME280;20145;43.118;25.694;2023-02-11T13:06:37;101033.22;;;4.10;49.09
33845;BME280;20145;43.118;25.694;2023-02-11T13:09:10;101027.34;;;4.13;48.85
33845;BME280;20145;43.118;25.694;2023-02-11T13:11:44;101022.31;;;4.14;49.09
33845;BME280;20145;43.118;25.694;2023-02-11T13:16:54;101016.63;;;4.21;48.43
33845;BME280;20145;43.118;25.694;2023-02-11T13:19:40;101018.94;;;4.15;49.81
33845;BME280;20145;43.118;25.694;2023-02-11T13:22:45;101011.47;;;4.20;49.27
33845;BME280;20145;43.118;25.694;2023-02-11T13:25:24;101003.97;;;4.24;49.01
33845;BME280;20145;43.118;25.694;2023-02-11T13:28:08;101009.97;;;4.25;48.72
33845;BME280;20145;43.118;25.694;2023-02-11T13:30:38;101002.84;;;4.18;49.38
33845;BME280;20145;43.118;25.694;2023-02-11T13:33:18;101003.16;;;4.25;48.89
33845;BME280;20145;43.118;25.694;2023-02-11T13:38:36;101004.84;;;4.25;49.14
33845;BME280;20145;43.118;25.694;2023-02-11T13:41:29;100997.19;;;4.25;48.19
33845;BME280;20145;43.118;25.694;2023-02-11T13:46:24;100972.16;;;4.16;49.42
33845;BME280;20145;43.118;25.694;2023-02-11T13:48:52;100976.53;;;4.19;49.44
33845;BME280;20145;43.118;25.694;2023-02-11T13:51:34;100974.38;;;4.30;48.41
33845;BME280;20145;43.118;25.694;2023-02-11T13:54:01;100964.97;;;4.29;49.00
33845;BME280;20145;43.118;25.694;2023-02-11T13:56:39;100967.75;;;4.35;48.22
33845;BME280;20145;43.118;25.694;2023-02-11T14:11:09;100959.31;;;4.37;48.11
33845;BME280;20145;43.118;25.694;2023-02-11T14:16:23;100934.94;;;4.23;48.35
33845;BME280;20145;43.118;25.694;2023-02-11T14:29:29;100937.50;;;4.23;48.05
33845;BME280;20145;43.118;25.694;2023-02-11T14:34:55;100930.66;;;4.22;48.36
33845;BME280;20145;43.118;25.694;2023-02-11T14:40:24;100927.91;;;4.17;49.03
33845;BME280;20145;43.118;25.694;2023-02-11T14:42:55;100927.91;;;4.17;49.48
33845;BME280;20145;43.118;25.694;2023-02-11T14:45:30;100919.09;;;4.09;49.87
33845;BME280;20145;43.118;25.694;2023-02-11T14:48:04;100914.81;;;4.08;50.30
33845;BME280;20145;43.118;25.694;2023-02-11T14:53:18;100915.38;;;4.01;49.78
33845;BME280;20145;43.118;25.694;2023-02-11T14:55:53;100914.19;;;3.93;50.54
33845;BME280;20145;43.118;25.694;2023-02-11T14:58:31;100901.19;;;3.87;50.15
33845;BME280;20145;43.118;25.694;2023-02-11T15:01:17;100898.53;;;3.84;51.35
33845;BME280;20145;43.118;25.694;2023-02-11T15:03:48;100897.16;;;3.71;51.87
33845;BME280;20145;43.118;25.694;2023-02-11T15:08:58;100891.81;;;3.65;51.83
33845;BME280;20145;43.118;25.694;2023-02-11T15:11:28;100895.13;;;3.62;51.95
33845;BME280;20145;43.118;25.694;2023-02-11T15:13:58;100893.94;;;3.54;52.03
33845;BME280;20145;43.118;25.694;2023-02-11T15:16:26;100895.25;;;3.44;53.19
33845;BME280;20145;43.118;25.694;2023-02-11T15:18:55;100895.59;;;3.32;53.78
33845;BME280;20145;43.118;25.694;2023-02-11T15:21:27;100885.72;;;3.19;54.88
33845;BME280;20145;43.118;25.694;2023-02-11T15:24:01;100889.31;;;3.03;56.24
33845;BME280;20145;43.118;25.694;2023-02-11T15:26:29;100885.97;;;2.85;58.53
33845;BME280;20145;43.118;25.694;2023-02-11T15:28:58;100891.94;;;2.66;59.51
33845;BME280;20145;43.118;25.694;2023-02-11T15:31:26;100890.69;;;2.56;61.88
33845;BME280;20145;43.118;25.694;2023-02-11T15:34:06;100880.38;;;2.35;62.81
33845;BME280;20145;43.118;25.694;2023-02-11T15:36:32;100891.50;;;2.18;63.43
33845;BME280;20145;43.118;25.694;2023-02-11T15:39:33;100889.59;;;1.94;63.97
33845;BME280;20145;43.118;25.694;2023-02-11T15:42:26;100887.69;;;1.72;65.66
33845;BME280;20145;43.118;25.694;2023-02-11T15:50:29;100840.59;;;0.93;68.86
33845;BME280;20145;43.118;25.694;2023-02-11T15:53:01;100873.78;;;0.96;69.44
33845;BME280;20145;43.118;25.694;2023-02-11T15:55:29;100878.25;;;0.83;70.93
33845;BME280;20145;43.118;25.694;2023-02-11T15:57:58;100887.63;;;0.68;70.37